sensor_id;sensor_type;location;lat;lon;timestamp;temperature;humidity
13332;DHT22;6735;51.456;12.626;2023-09-19T00:02:17;17.70;84.50
13332;DHT22;6735;51.456;12.626;2023-09-19T00:04:43;17.70;84.50
13332;DHT22;6735;51.456;12.626;2023-09-19T00:07:09;17.70;84.50
13332;DHT22;6735;51.456;12.626;2023-09-19T00:09:35;17.70;84.60
13332;DHT22;6735;51.456;12.626;2023-09-19T00:12:05;17.70;84.60
13332;DHT22;6735;51.456;12.626;2023-09-19T00:14:31;17.70;84.60
13332;DHT22;6735;51.456;12.626;2023-09-19T00:16:59;17.70;84.60
13332;DHT22;6735;51.456;12.626;2023-09-19T00:19:26;17.70;84.60
13332;DHT22;6735;51.456;12.626;2023-09-19T00:21:51;17.70;84.60
13332;DHT22;6735;51.456;12.626;2023-09-19T00:24:18;17.60;84.90
13332;DHT22;6735;51.456;12.626;2023-09-19T00:26:44;17.60;84.80
13332;DHT22;6735;51.456;12.626;2023-09-19T00:29:11;17.60;84.80
13332;DHT22;6735;51.456;12.626;2023-09-19T00:31:43;17.60;84.80
13332;DHT22;6735;51.456;12.626;2023-09-19T00:34:08;17.60;84.80
13332;DHT22;6735;51.456;12.626;2023-09-19T00:36:36;17.60;84.90
13332;DHT22;6735;51.456;12.626;2023-09-19T00:39:04;17.50;85.00
13332;DHT22;6735;51.456;12.626;2023-09-19T00:41:33;17.50;85.20
13332;DHT22;6735;51.456;12.626;2023-09-19T00:44:04;17.50;85.20
13332;DHT22;6735;51.456;12.626;2023-09-19T00:46:30;17.40;85.30
13332;DHT22;6735;51.456;12.626;2023-09-19T00:48:58;17.50;85.50
13332;DHT22;6735;51.456;12.626;2023-09-19T00:51:25;17.50;85.50
13332;DHT22;6735;51.456;12.626;2023-09-19T00:53:53;17.50;85.50
13332;DHT22;6735;51.456;12.626;2023-09-19T00:56:19;17.40;85.40
13332;DHT22;6735;51.456;12.626;2023-09-19T00:58:46;17.50;85.40
13332;DHT22;6735;51.456;12.626;2023-09-19T01:01:13;17.40;85.50
13332;DHT22;6735;51.456;12.626;2023-09-19T01:03:41;17.40;85.60
13332;DHT22;6735;51.456;12.626;2023-09-19T01:06:07;17.40;85.60
13332;DHT22;6735;51.456;12.626;2023-09-19T01:08:36;17.40;85.70
13332;DHT22;6735;51.456;12.626;2023-09-19T01:11:28;17.40;85.80
13332;DHT22;6735;51.456;12.626;2023-09-19T01:14:01;17.40;85.80
13332;DHT22;6735;51.456;12.626;2023-09-19T01:22:04;17.30;85.70
13332;DHT22;6735;51.456;12.626;2023-09-19T01:30:24;17.20;86.00
13332;DHT22;6735;51.456;12.626;2023-09-19T01:32:52;17.10;86.00
13332;DHT22;6735;51.456;12.626;2023-09-19T01:35:19;17.10;86.10
13332;DHT22;6735;51.456;12.626;2023-09-19T01:37:45;17.10;86.10
13332;DHT22;6735;51.456;12.626;2023-09-19T01:40:12;17.10;86.40
13332;DHT22;6735;51.456;12.626;2023-09-19T01:46:18;17.00;86.20
13332;DHT22;6735;51.456;12.626;2023-09-19T01:51:39;17.00;86.50
13332;DHT22;6735;51.456;12.626;2023-09-19T01:54:12;17.00;86.30
13332;DHT22;6735;51.456;12.626;2023-09-19T01:56:53;17.00;86.40
13332;DHT22;6735;51.456;12.626;2023-09-19T01:59:26;17.00;86.20
13332;DHT22;6735;51.456;12.626;2023-09-19T02:01:54;16.90;86.20
13332;DHT22;6735;51.456;12.626;2023-09-19T02:04:20;16.90;86.10
13332;DHT22;6735;51.456;12.626;2023-09-19T02:06:46;16.80;86.10
13332;DHT22;6735;51.456;12.626;2023-09-19T02:09:13;16.80;86.20
13332;DHT22;6735;51.456;12.626;2023-09-19T02:11:40;16.80;86.40
13332;DHT22;6735;51.456;12.626;2023-09-19T02:14:06;16.80;86.60
13332;DHT22;6735;51.456;12.626;2023-09-19T02:16:34;16.80;86.80
13332;DHT22;6735;51.456;12.626;2023-09-19T02:18:59;16.80;86.70
13332;DHT22;6735;51.456;12.626;2023-09-19T02:21:25;16.70;86.60
13332;DHT22;6735;51.456;12.626;2023-09-19T02:23:52;16.70;87.00
13332;DHT22;6735;51.456;12.626;2023-09-19T02:26:17;16.80;87.10
13332;DHT22;6735;51.456;12.626;2023-09-19T02:28:44;16.80;87.00
13332;DHT22;6735;51.456;12.626;2023-09-19T02:31:11;16.80;87.00
13332;DHT22;6735;51.456;12.626;2023-09-19T02:33:36;16.90;87.20
13332;DHT22;6735;51.456;12.626;2023-09-19T02:36:02;16.90;86.90
13332;DHT22;6735;51.456;12.626;2023-09-19T02:38:29;17.00;86.70
13332;DHT22;6735;51.456;12.626;2023-09-19T02:40:55;17.00;86.50
13332;DHT22;6735;51.456;12.626;2023-09-19T02:43:21;17.00;86.50
13332;DHT22;6735;51.456;12.626;2023-09-19T02:45:48;17.00;86.30
13332;DHT22;6735;51.456;12.626;2023-09-19T02:48:18;17.00;86.30
13332;DHT22;6735;51.456;12.626;2023-09-19T02:50:43;17.00;86.10
13332;DHT22;6735;51.456;12.626;2023-09-19T02:53:09;17.10;85.90
13332;DHT22;6735;51.456;12.626;2023-09-19T02:55:38;17.10;85.80
13332;DHT22;6735;51.456;12.626;2023-09-19T02:58:06;17.00;85.80
13332;DHT22;6735;51.456;12.626;2023-09-19T03:00:33;17.00;85.80
13332;DHT22;6735;51.456;12.626;2023-09-19T03:02:59;17.10;85.70
13332;DHT22;6735;51.456;12.626;2023-09-19T03:05:25;17.00;85.60
13332;DHT22;6735;51.456;12.626;2023-09-19T03:07:52;17.00;85.70
13332;DHT22;6735;51.456;12.626;2023-09-19T03:10:18;17.00;85.70
13332;DHT22;6735;51.456;12.626;2023-09-19T03:12:44;17.00;85.50
13332;DHT22;6735;51.456;12.626;2023-09-19T03:15:09;17.00;85.40
13332;DHT22;6735;51.456;12.626;2023-09-19T03:17:35;17.00;85.40
13332;DHT22;6735;51.456;12.626;2023-09-19T03:20:01;17.10;85.20
13332;DHT22;6735;51.456;12.626;2023-09-19T03:22:27;17.10;85.10
13332;DHT22;6735;51.456;12.626;2023-09-19T03:24:53;17.10;84.90
13332;DHT22;6735;51.456;12.626;2023-09-19T03:27:19;17.10;84.70
13332;DHT22;6735;51.456;12.626;2023-09-19T03:29:46;17.20;84.50
13332;DHT22;6735;51.456;12.626;2023-09-19T03:32:11;17.20;84.10
13332;DHT22;6735;51.456;12.626;2023-09-19T03:34:37;17.20;83.90
13332;DHT22;6735;51.456;12.626;2023-09-19T03:37:09;17.30;83.80
13332;DHT22;6735;51.456;12.626;2023-09-19T03:39:35;17.30;83.70
13332;DHT22;6735;51.456;12.626;2023-09-19T03:42:02;17.30;83.60
13332;DHT22;6735;51.456;12.626;2023-09-19T03:44:29;17.30;83.60
13332;DHT22;6735;51.456;12.626;2023-09-19T03:46:55;17.20;83.50
13332;DHT22;6735;51.456;12.626;2023-09-19T03:49:21;17.30;83.60
13332;DHT22;6735;51.456;12.626;2023-09-19T03:51:47;17.20;83.50
13332;DHT22;6735;51.456;12.626;2023-09-19T03:54:12;17.30;83.40
13332;DHT22;6735;51.456;12.626;2023-09-19T03:56:38;17.20;83.30
13332;DHT22;6735;51.456;12.626;2023-09-19T03:59:03;17.20;83.30
13332;DHT22;6735;51.456;12.626;2023-09-19T04:01:29;17.20;83.30
13332;DHT22;6735;51.456;12.626;2023-09-19T04:03:57;17.20;83.10
13332;DHT22;6735;51.456;12.626;2023-09-19T04:06:23;17.20;83.10
13332;DHT22;6735;51.456;12.626;2023-09-19T04:08:48;17.20;83.10
13332;DHT22;6735;51.456;12.626;2023-09-19T04:11:14;17.20;82.90
13332;DHT22;6735;51.456;12.626;2023-09-19T04:13:40;17.20;82.80
13332;DHT22;6735;51.456;12.626;2023-09-19T04:16:05;17.20;82.80
13332;DHT22;6735;51.456;12.626;2023-09-19T04:18:32;17.20;82.80
13332;DHT22;6735;51.456;12.626;2023-09-19T04:20:59;17.20;82.70
13332;DHT22;6735;51.456;12.626;2023-09-19T04:23:27;17.20;82.60
13332;DHT22;6735;51.456;12.626;2023-09-19T04:25:53;17.20;82.60
13332;DHT22;6735;51.456;12.626;2023-09-19T04:28:19;17.20;82.60
13332;DHT22;6735;51.456;12.626;2023-09-19T04:30:44;17.20;82.50
13332;DHT22;6735;51.456;12.626;2023-09-19T04:33:10;17.10;82.50
13332;DHT22;6735;51.456;12.626;2023-09-19T04:35:36;17.10;82.50
13332;DHT22;6735;51.456;12.626;2023-09-19T04:38:04;17.10;82.50
13332;DHT22;6735;51.456;12.626;2023-09-19T04:40:32;17.10;82.50
13332;DHT22;6735;51.456;12.626;2023-09-19T04:42:58;17.00;82.60
13332;DHT22;6735;51.456;12.626;2023-09-19T04:45:24;17.00;82.70
13332;DHT22;6735;51.456;12.626;2023-09-19T04:47:50;16.90;82.70
13332;DHT22;6735;51.456;12.626;2023-09-19T04:50:15;16.90;82.80
13332;DHT22;6735;51.456;12.626;2023-09-19T04:52:43;16.80;82.90
13332;DHT22;6735;51.456;12.626;2023-09-19T04:55:13;16.80;83.00
13332;DHT22;6735;51.456;12.626;2023-09-19T04:57:46;16.80;83.10
13332;DHT22;6735;51.456;12.626;2023-09-19T05:00:13;16.70;83.00
13332;DHT22;6735;51.456;12.626;2023-09-19T05:02:43;16.70;83.10
13332;DHT22;6735;51.456;12.626;2023-09-19T05:05:09;16.70;83.10
13332;DHT22;6735;51.456;12.626;2023-09-19T05:07:40;16.70;83.20
13332;DHT22;6735;51.456;12.626;2023-09-19T05:10:07;16.70;83.10
13332;DHT22;6735;51.456;12.626;2023-09-19T05:12:36;16.70;83.00
13332;DHT22;6735;51.456;12.626;2023-09-19T05:15:02;16.70;83.00
13332;DHT22;6735;51.456;12.626;2023-09-19T05:17:28;16.70;82.90
13332;DHT22;6735;51.456;12.626;2023-09-19T05:19:54;16.70;82.80
13332;DHT22;6735;51.456;12.626;2023-09-19T05:22:19;16.80;82.80
13332;DHT22;6735;51.456;12.626;2023-09-19T05:24:45;16.70;82.70
13332;DHT22;6735;51.456;12.626;2023-09-19T05:27:14;16.80;82.60
13332;DHT22;6735;51.456;12.626;2023-09-19T05:29:42;16.70;82.50
13332;DHT22;6735;51.456;12.626;2023-09-19T05:32:08;16.80;82.40
13332;DHT22;6735;51.456;12.626;2023-09-19T05:34:34;16.80;82.20
13332;DHT22;6735;51.456;12.626;2023-09-19T05:36:59;16.90;82.00
13332;DHT22;6735;51.456;12.626;2023-09-19T05:39:25;17.20;81.40
13332;DHT22;6735;51.456;12.626;2023-09-19T05:41:51;17.70;80.10
13332;DHT22;6735;51.456;12.626;2023-09-19T05:44:16;18.00;79.20
13332;DHT22;6735;51.456;12.626;2023-09-19T05:46:42;18.20;78.20
13332;DHT22;6735;51.456;12.626;2023-09-19T05:49:07;18.30;78.10
13332;DHT22;6735;51.456;12.626;2023-09-19T05:51:33;18.20;78.30
13332;DHT22;6735;51.456;12.626;2023-09-19T05:54:00;18.10;78.20
13332;DHT22;6735;51.456;12.626;2023-09-19T05:56:26;18.00;78.60
13332;DHT22;6735;51.456;12.626;2023-09-19T05:58:52;17.90;78.30
13332;DHT22;6735;51.456;12.626;2023-09-19T06:01:18;17.90;78.70
13332;DHT22;6735;51.456;12.626;2023-09-19T06:03:44;17.80;78.80
13332;DHT22;6735;51.456;12.626;2023-09-19T06:06:09;17.70;78.70
13332;DHT22;6735;51.456;12.626;2023-09-19T06:08:35;17.70;78.40
13332;DHT22;6735;51.456;12.626;2023-09-19T06:11:00;17.70;78.50
13332;DHT22;6735;51.456;12.626;2023-09-19T06:13:29;17.70;78.60
13332;DHT22;6735;51.456;12.626;2023-09-19T06:15:55;17.70;78.70
13332;DHT22;6735;51.456;12.626;2023-09-19T06:18:23;17.70;78.50
13332;DHT22;6735;51.456;12.626;2023-09-19T06:20:51;17.70;78.50
13332;DHT22;6735;51.456;12.626;2023-09-19T06:23:17;17.70;78.30
13332;DHT22;6735;51.456;12.626;2023-09-19T06:25:45;17.70;78.10
13332;DHT22;6735;51.456;12.626;2023-09-19T06:28:10;17.70;78.00
13332;DHT22;6735;51.456;12.626;2023-09-19T06:30:38;17.80;78.10
13332;DHT22;6735;51.456;12.626;2023-09-19T06:33:07;17.80;78.00
13332;DHT22;6735;51.456;12.626;2023-09-19T06:35:33;17.80;77.90
13332;DHT22;6735;51.456;12.626;2023-09-19T06:38:02;17.90;77.70
13332;DHT22;6735;51.456;12.626;2023-09-19T06:40:28;18.00;77.80
13332;DHT22;6735;51.456;12.626;2023-09-19T06:42:56;18.00;77.30
13332;DHT22;6735;51.456;12.626;2023-09-19T06:45:22;18.10;76.80
13332;DHT22;6735;51.456;12.626;2023-09-19T06:47:49;18.20;76.30
13332;DHT22;6735;51.456;12.626;2023-09-19T06:50:19;18.30;76.40
13332;DHT22;6735;51.456;12.626;2023-09-19T06:52:46;18.40;75.90
13332;DHT22;6735;51.456;12.626;2023-09-19T06:55:15;18.60;75.20
13332;DHT22;6735;51.456;12.626;2023-09-19T06:57:41;18.70;75.10
13332;DHT22;6735;51.456;12.626;2023-09-19T07:00:08;18.70;74.40
13332;DHT22;6735;51.456;12.626;2023-09-19T07:02:41;18.90;73.80
13332;DHT22;6735;51.456;12.626;2023-09-19T07:05:07;19.00;73.50
13332;DHT22;6735;51.456;12.626;2023-09-19T07:07:32;19.20;73.10
13332;DHT22;6735;51.456;12.626;2023-09-19T07:10:01;19.20;72.30
13332;DHT22;6735;51.456;12.626;2023-09-19T07:12:26;19.30;71.20
13332;DHT22;6735;51.456;12.626;2023-09-19T07:14:52;19.50;70.70
13332;DHT22;6735;51.456;12.626;2023-09-19T07:17:17;19.70;70.40
13332;DHT22;6735;51.456;12.626;2023-09-19T07:19:44;19.90;69.70
13332;DHT22;6735;51.456;12.626;2023-09-19T07:22:10;20.70;68.00
13332;DHT22;6735;51.456;12.626;2023-09-19T07:24:35;21.50;67.30
13332;DHT22;6735;51.456;12.626;2023-09-19T07:27:03;22.00;65.90
13332;DHT22;6735;51.456;12.626;2023-09-19T07:29:30;22.60;64.50
13332;DHT22;6735;51.456;12.626;2023-09-19T07:31:56;22.70;63.50
13332;DHT22;6735;51.456;12.626;2023-09-19T07:34:21;22.60;63.80
13332;DHT22;6735;51.456;12.626;2023-09-19T07:36:48;22.40;63.30
13332;DHT22;6735;51.456;12.626;2023-09-19T07:39:13;22.50;62.50
13332;DHT22;6735;51.456;12.626;2023-09-19T07:41:39;22.30;62.60
13332;DHT22;6735;51.456;12.626;2023-09-19T07:44:04;22.00;62.20
13332;DHT22;6735;51.456;12.626;2023-09-19T07:46:30;22.00;62.90
13332;DHT22;6735;51.456;12.626;2023-09-19T07:48:57;22.00;62.40
13332;DHT22;6735;51.456;12.626;2023-09-19T07:51:22;21.80;62.70
13332;DHT22;6735;51.456;12.626;2023-09-19T07:53:48;22.10;62.00
13332;DHT22;6735;51.456;12.626;2023-09-19T07:56:14;22.70;60.90
13332;DHT22;6735;51.456;12.626;2023-09-19T07:58:40;23.10;58.00
13332;DHT22;6735;51.456;12.626;2023-09-19T08:01:09;23.20;59.80
13332;DHT22;6735;51.456;12.626;2023-09-19T08:03:36;23.70;58.00
13332;DHT22;6735;51.456;12.626;2023-09-19T08:06:06;24.20;57.70
13332;DHT22;6735;51.456;12.626;2023-09-19T08:08:32;24.10;57.40
13332;DHT22;6735;51.456;12.626;2023-09-19T08:11:02;24.20;56.70
13332;DHT22;6735;51.456;12.626;2023-09-19T08:13:29;23.90;57.10
13332;DHT22;6735;51.456;12.626;2023-09-19T08:15:56;24.30;54.70
13332;DHT22;6735;51.456;12.626;2023-09-19T08:18:21;24.50;54.60
13332;DHT22;6735;51.456;12.626;2023-09-19T08:20:52;24.50;53.20
13332;DHT22;6735;51.456;12.626;2023-09-19T08:23:18;24.60;52.00
13332;DHT22;6735;51.456;12.626;2023-09-19T08:25:45;24.60;52.40
13332;DHT22;6735;51.456;12.626;2023-09-19T08:28:11;24.60;51.90
13332;DHT22;6735;51.456;12.626;2023-09-19T08:30:37;24.40;51.10
13332;DHT22;6735;51.456;12.626;2023-09-19T08:33:05;24.40;51.60
13332;DHT22;6735;51.456;12.626;2023-09-19T08:35:43;24.20;51.00
13332;DHT22;6735;51.456;12.626;2023-09-19T08:38:10;23.70;50.30
13332;DHT22;6735;51.456;12.626;2023-09-19T08:40:38;23.30;51.30
13332;DHT22;6735;51.456;12.626;2023-09-19T08:43:05;23.00;52.10
13332;DHT22;6735;51.456;12.626;2023-09-19T08:45:34;22.70;51.30
13332;DHT22;6735;51.456;12.626;2023-09-19T08:50:31;22.20;52.10
13332;DHT22;6735;51.456;12.626;2023-09-19T08:53:14;22.20;52.20
13332;DHT22;6735;51.456;12.626;2023-09-19T08:55:41;22.30;51.90
13332;DHT22;6735;51.456;12.626;2023-09-19T08:58:10;22.20;52.40
13332;DHT22;6735;51.456;12.626;2023-09-19T09:00:36;22.40;52.00
13332;DHT22;6735;51.456;12.626;2023-09-19T09:03:03;22.50;51.70
13332;DHT22;6735;51.456;12.626;2023-09-19T09:05:30;22.50;52.10
13332;DHT22;6735;51.456;12.626;2023-09-19T09:07:57;22.80;51.70
13332;DHT22;6735;51.456;12.626;2023-09-19T09:10:25;22.80;51.50
13332;DHT22;6735;51.456;12.626;2023-09-19T09:12:53;23.20;50.80
13332;DHT22;6735;51.456;12.626;2023-09-19T09:15:23;23.50;49.60
13332;DHT22;6735;51.456;12.626;2023-09-19T09:17:52;23.60;50.00
13332;DHT22;6735;51.456;12.626;2023-09-19T09:20:21;23.60;49.30
13332;DHT22;6735;51.456;12.626;2023-09-19T09:22:54;23.70;49.40
13332;DHT22;6735;51.456;12.626;2023-09-19T09:25:21;23.80;49.40
13332;DHT22;6735;51.456;12.626;2023-09-19T09:28:01;23.80;49.50
13332;DHT22;6735;51.456;12.626;2023-09-19T09:30:37;23.80;49.20
13332;DHT22;6735;51.456;12.626;2023-09-19T09:33:13;24.00;48.80
13332;DHT22;6735;51.456;12.626;2023-09-19T09:38:19;23.90;47.50
13332;DHT22;6735;51.456;12.626;2023-09-19T09:40:50;23.80;47.80
13332;DHT22;6735;51.456;12.626;2023-09-19T09:43:37;23.90;47.40
13332;DHT22;6735;51.456;12.626;2023-09-19T09:46:20;23.80;47.30
13332;DHT22;6735;51.456;12.626;2023-09-19T09:48:47;23.70;45.10
13332;DHT22;6735;51.456;12.626;2023-09-19T09:51:33;23.70;46.30
13332;DHT22;6735;51.456;12.626;2023-09-19T09:54:31;23.70;45.90
13332;DHT22;6735;51.456;12.626;2023-09-19T09:57:03;23.70;44.10
13332;DHT22;6735;51.456;12.626;2023-09-19T10:02:36;24.20;45.20
13332;DHT22;6735;51.456;12.626;2023-09-19T10:05:22;24.20;45.10
13332;DHT22;6735;51.456;12.626;2023-09-19T10:07:54;24.20;43.00
13332;DHT22;6735;51.456;12.626;2023-09-19T10:10:37;23.90;45.10
13332;DHT22;6735;51.456;12.626;2023-09-19T10:13:20;23.90;44.90
13332;DHT22;6735;51.456;12.626;2023-09-19T10:15:51;23.90;44.50
13332;DHT22;6735;51.456;12.626;2023-09-19T10:18:24;23.80;44.50
13332;DHT22;6735;51.456;12.626;2023-09-19T10:20:50;23.80;43.90
13332;DHT22;6735;51.456;12.626;2023-09-19T10:23:20;23.90;43.90
13332;DHT22;6735;51.456;12.626;2023-09-19T10:25:52;23.80;43.60
13332;DHT22;6735;51.456;12.626;2023-09-19T10:28:18;23.70;44.00
13332;DHT22;6735;51.456;12.626;2023-09-19T10:30:49;23.60;44.30
13332;DHT22;6735;51.456;12.626;2023-09-19T10:33:20;23.50;44.50
13332;DHT22;6735;51.456;12.626;2023-09-19T10:35:51;23.60;44.40
13332;DHT22;6735;51.456;12.626;2023-09-19T10:38:22;23.40;44.10
13332;DHT22;6735;51.456;12.626;2023-09-19T10:40:53;23.20;44.20
13332;DHT22;6735;51.456;12.626;2023-09-19T10:43:20;23.00;44.50
13332;DHT22;6735;51.456;12.626;2023-09-19T10:45:49;23.00;43.70
13332;DHT22;6735;51.456;12.626;2023-09-19T10:48:17;23.00;44.20
13332;DHT22;6735;51.456;12.626;2023-09-19T10:54:08;23.10;42.80
13332;DHT22;6735;51.456;12.626;2023-09-19T10:56:42;23.10;43.30
13332;DHT22;6735;51.456;12.626;2023-09-19T10:59:17;23.30;43.40
13332;DHT22;6735;51.456;12.626;2023-09-19T11:01:50;23.30;42.00
13332;DHT22;6735;51.456;12.626;2023-09-19T11:10:05;23.20;41.80
13332;DHT22;6735;51.456;12.626;2023-09-19T11:12:47;23.20;40.90
13332;DHT22;6735;51.456;12.626;2023-09-19T11:26:48;23.20;40.10
13332;DHT22;6735;51.456;12.626;2023-09-19T11:29:27;23.20;40.90
13332;DHT22;6735;51.456;12.626;2023-09-19T11:31:54;23.20;40.10
13332;DHT22;6735;51.456;12.626;2023-09-19T11:34:40;23.30;41.10
13332;DHT22;6735;51.456;12.626;2023-09-19T11:39:37;23.10;40.70
13332;DHT22;6735;51.456;12.626;2023-09-19T11:42:42;23.00;40.50
13332;DHT22;6735;51.456;12.626;2023-09-19T11:48:18;23.10;39.90
13332;DHT22;6735;51.456;12.626;2023-09-19T11:50:45;23.00;40.50
13332;DHT22;6735;51.456;12.626;2023-09-19T11:53:12;23.00;40.60
13332;DHT22;6735;51.456;12.626;2023-09-19T11:55:39;23.10;40.60
13332;DHT22;6735;51.456;12.626;2023-09-19T11:58:07;23.10;40.70
13332;DHT22;6735;51.456;12.626;2023-09-19T12:00:34;23.20;40.80
13332;DHT22;6735;51.456;12.626;2023-09-19T12:03:11;23.30;40.70
13332;DHT22;6735;51.456;12.626;2023-09-19T12:05:37;23.40;40.80
13332;DHT22;6735;51.456;12.626;2023-09-19T12:08:04;23.40;40.70
13332;DHT22;6735;51.456;12.626;2023-09-19T12:10:33;23.40;40.80
13332;DHT22;6735;51.456;12.626;2023-09-19T12:12:59;23.40;40.70
13332;DHT22;6735;51.456;12.626;2023-09-19T12:15:25;23.30;40.50
13332;DHT22;6735;51.456;12.626;2023-09-19T12:18:00;23.20;40.50
13332;DHT22;6735;51.456;12.626;2023-09-19T12:20:43;23.30;40.70
13332;DHT22;6735;51.456;12.626;2023-09-19T12:23:15;23.30;40.10
13332;DHT22;6735;51.456;12.626;2023-09-19T12:25:44;23.30;40.80
13332;DHT22;6735;51.456;12.626;2023-09-19T12:28:14;23.20;40.90
13332;DHT22;6735;51.456;12.626;2023-09-19T12:30:42;23.20;40.80
13332;DHT22;6735;51.456;12.626;2023-09-19T12:33:20;23.20;40.80
13332;DHT22;6735;51.456;12.626;2023-09-19T12:35:47;23.20;40.50
13332;DHT22;6735;51.456;12.626;2023-09-19T12:38:27;23.20;41.00
13332;DHT22;6735;51.456;12.626;2023-09-19T12:41:01;23.20;40.80
13332;DHT22;6735;51.456;12.626;2023-09-19T12:43:31;23.20;41.10
13332;DHT22;6735;51.456;12.626;2023-09-19T12:45:58;23.20;41.20
13332;DHT22;6735;51.456;12.626;2023-09-19T12:48:26;23.20;41.40
13332;DHT22;6735;51.456;12.626;2023-09-19T12:51:04;23.30;41.30
13332;DHT22;6735;51.456;12.626;2023-09-19T12:53:36;23.50;41.40
13332;DHT22;6735;51.456;12.626;2023-09-19T12:56:06;23.60;41.40
13332;DHT22;6735;51.456;12.626;2023-09-19T12:58:34;23.70;41.50
13332;DHT22;6735;51.456;12.626;2023-09-19T13:01:00;23.60;41.40
13332;DHT22;6735;51.456;12.626;2023-09-19T13:03:29;23.60;41.60
13332;DHT22;6735;51.456;12.626;2023-09-19T13:06:03;23.50;41.70
13332;DHT22;6735;51.456;12.626;2023-09-19T13:08:38;23.50;42.00
13332;DHT22;6735;51.456;12.626;2023-09-19T13:11:06;23.30;42.00
13332;DHT22;6735;51.456;12.626;2023-09-19T13:13:32;23.30;42.20
13332;DHT22;6735;51.456;12.626;2023-09-19T13:15:59;23.40;42.20
13332;DHT22;6735;51.456;12.626;2023-09-19T13:18:27;23.40;42.10
13332;DHT22;6735;51.456;12.626;2023-09-19T13:21:13;23.40;42.10
13332;DHT22;6735;51.456;12.626;2023-09-19T13:23:52;23.40;40.70
13332;DHT22;6735;51.456;12.626;2023-09-19T13:26:18;23.40;41.40
13332;DHT22;6735;51.456;12.626;2023-09-19T13:28:44;23.50;41.00
13332;DHT22;6735;51.456;12.626;2023-09-19T13:31:10;23.40;41.10
13332;DHT22;6735;51.456;12.626;2023-09-19T13:33:43;23.50;41.00
13332;DHT22;6735;51.456;12.626;2023-09-19T13:36:08;23.60;40.80
13332;DHT22;6735;51.456;12.626;2023-09-19T13:38:34;23.50;41.10
13332;DHT22;6735;51.456;12.626;2023-09-19T13:41:00;23.60;40.60
13332;DHT22;6735;51.456;12.626;2023-09-19T13:43:27;23.50;41.00
13332;DHT22;6735;51.456;12.626;2023-09-19T13:45:54;23.20;41.00
13332;DHT22;6735;51.456;12.626;2023-09-19T13:48:19;23.20;41.20
13332;DHT22;6735;51.456;12.626;2023-09-19T13:50:48;23.30;41.10
13332;DHT22;6735;51.456;12.626;2023-09-19T13:53:13;23.30;40.70
13332;DHT22;6735;51.456;12.626;2023-09-19T13:55:39;23.20;41.10
13332;DHT22;6735;51.456;12.626;2023-09-19T13:58:05;23.20;41.10
13332;DHT22;6735;51.456;12.626;2023-09-19T14:00:32;23.20;41.20
13332;DHT22;6735;51.456;12.626;2023-09-19T14:03:01;23.20;41.30
13332;DHT22;6735;51.456;12.626;2023-09-19T14:05:27;23.20;41.20
13332;DHT22;6735;51.456;12.626;2023-09-19T14:07:53;23.20;41.20
13332;DHT22;6735;51.456;12.626;2023-09-19T14:10:22;23.20;41.30
13332;DHT22;6735;51.456;12.626;2023-09-19T14:12:48;23.20;41.60
13332;DHT22;6735;51.456;12.626;2023-09-19T14:15:13;23.20;41.60
13332;DHT22;6735;51.456;12.626;2023-09-19T14:17:40;23.20;41.40
13332;DHT22;6735;51.456;12.626;2023-09-19T14:20:08;23.20;41.50
13332;DHT22;6735;51.456;12.626;2023-09-19T14:22:35;23.20;41.60
13332;DHT22;6735;51.456;12.626;2023-09-19T14:25:02;23.20;41.60
13332;DHT22;6735;51.456;12.626;2023-09-19T14:27:28;23.20;41.70
13332;DHT22;6735;51.456;12.626;2023-09-19T14:29:53;23.20;41.80
13332;DHT22;6735;51.456;12.626;2023-09-19T14:32:19;23.20;41.90
13332;DHT22;6735;51.456;12.626;2023-09-19T14:34:44;23.20;41.90
13332;DHT22;6735;51.456;12.626;2023-09-19T14:37:11;23.20;42.00
13332;DHT22;6735;51.456;12.626;2023-09-19T14:39:37;23.20;42.00
13332;DHT22;6735;51.456;12.626;2023-09-19T14:42:04;23.20;42.00
13332;DHT22;6735;51.456;12.626;2023-09-19T14:44:29;23.20;42.00
13332;DHT22;6735;51.456;12.626;2023-09-19T14:46:55;23.20;42.00
13332;DHT22;6735;51.456;12.626;2023-09-19T14:49:21;23.10;41.80
13332;DHT22;6735;51.456;12.626;2023-09-19T14:51:46;23.00;42.00
13332;DHT22;6735;51.456;12.626;2023-09-19T14:54:13;23.00;42.10
13332;DHT22;6735;51.456;12.626;2023-09-19T14:56:42;23.00;42.20
13332;DHT22;6735;51.456;12.626;2023-09-19T14:59:07;23.00;42.20
13332;DHT22;6735;51.456;12.626;2023-09-19T15:01:36;23.00;42.10
13332;DHT22;6735;51.456;12.626;2023-09-19T15:04:02;22.90;42.10
13332;DHT22;6735;51.456;12.626;2023-09-19T15:06:27;22.90;42.10
13332;DHT22;6735;51.456;12.626;2023-09-19T15:08:53;22.80;42.50
13332;DHT22;6735;51.456;12.626;2023-09-19T15:11:19;22.70;42.60
13332;DHT22;6735;51.456;12.626;2023-09-19T15:13:47;22.70;42.60
13332;DHT22;6735;51.456;12.626;2023-09-19T15:16:13;22.70;42.70
13332;DHT22;6735;51.456;12.626;2023-09-19T15:18:44;22.60;43.10
13332;DHT22;6735;51.456;12.626;2023-09-19T15:21:11;22.60;43.20
13332;DHT22;6735;51.456;12.626;2023-09-19T15:23:38;22.50;43.60
13332;DHT22;6735;51.456;12.626;2023-09-19T15:26:08;22.40;43.80
13332;DHT22;6735;51.456;12.626;2023-09-19T15:28:34;22.40;43.90
13332;DHT22;6735;51.456;12.626;2023-09-19T15:31:07;22.30;44.00
13332;DHT22;6735;51.456;12.626;2023-09-19T15:33:33;22.30;44.10
13332;DHT22;6735;51.456;12.626;2023-09-19T15:36:06;22.20;44.40
13332;DHT22;6735;51.456;12.626;2023-09-19T15:38:50;22.20;44.50
13332;DHT22;6735;51.456;12.626;2023-09-19T15:41:19;22.10;44.60
13332;DHT22;6735;51.456;12.626;2023-09-19T15:43:45;22.10;44.60
13332;DHT22;6735;51.456;12.626;2023-09-19T15:46:10;22.10;44.50
13332;DHT22;6735;51.456;12.626;2023-09-19T15:48:36;22.00;44.20
13332;DHT22;6735;51.456;12.626;2023-09-19T15:51:04;22.00;44.10
13332;DHT22;6735;51.456;12.626;2023-09-19T15:53:46;21.90;44.10
13332;DHT22;6735;51.456;12.626;2023-09-19T15:56:12;21.90;44.20
13332;DHT22;6735;51.456;12.626;2023-09-19T15:58:40;21.80;43.90
13332;DHT22;6735;51.456;12.626;2023-09-19T16:01:06;21.70;44.10
13332;DHT22;6735;51.456;12.626;2023-09-19T16:03:37;21.70;44.10
13332;DHT22;6735;51.456;12.626;2023-09-19T16:06:08;21.60;44.30
13332;DHT22;6735;51.456;12.626;2023-09-19T16:08:34;21.50;44.00
13332;DHT22;6735;51.456;12.626;2023-09-19T16:11:01;21.50;43.60
13332;DHT22;6735;51.456;12.626;2023-09-19T16:13:26;21.40;43.50
13332;DHT22;6735;51.456;12.626;2023-09-19T16:15:53;21.40;43.50
13332;DHT22;6735;51.456;12.626;2023-09-19T16:18:19;21.30;43.50
13332;DHT22;6735;51.456;12.626;2023-09-19T16:20:45;21.30;43.40
13332;DHT22;6735;51.456;12.626;2023-09-19T16:23:11;21.20;43.60
13332;DHT22;6735;51.456;12.626;2023-09-19T16:25:36;21.10;43.60
13332;DHT22;6735;51.456;12.626;2023-09-19T16:28:02;21.10;43.70
13332;DHT22;6735;51.456;12.626;2023-09-19T16:30:28;21.00;43.90